createdAt,value
2019-02-09T00:02:18.648Z,3.24
2019-02-09T00:05:25.418Z,3.20
2019-02-09T00:08:32.373Z,3.19
2019-02-09T00:11:39.356Z,3.04
2019-02-09T00:14:47.781Z,2.98
2019-02-09T00:17:54.681Z,3.14
2019-02-09T00:21:01.906Z,3.08
2019-02-09T00:24:08.916Z,3.02
2019-02-09T00:27:15.393Z,2.82
2019-02-09T00:30:22.130Z,2.86
2019-02-09T00:33:28.845Z,2.93
2019-02-09T00:36:35.970Z,2.97
2019-02-09T00:39:42.766Z,2.82
2019-02-09T00:42:49.388Z,2.82
2019-02-09T00:45:55.680Z,2.76
2019-02-09T00:49:02.313Z,2.79
2019-02-09T00:52:08.808Z,2.81
2019-02-09T00:55:16.084Z,2.82
2019-02-09T00:58:22.606Z,2.86
2019-02-09T01:01:29.185Z,2.84
2019-02-09T01:04:35.824Z,2.73
2019-02-09T01:07:42.425Z,2.80
2019-02-09T01:10:49.391Z,2.61
2019-02-09T01:13:56.198Z,2.62
2019-02-09T01:17:02.318Z,2.62
2019-02-09T01:20:10.997Z,2.84
2019-02-09T01:23:17.681Z,2.81
2019-02-09T01:26:24.354Z,2.87
2019-02-09T01:29:31.221Z,2.89
2019-02-09T01:32:37.764Z,2.90
2019-02-09T01:35:45.287Z,2.84
2019-02-09T01:38:54.536Z,2.87
2019-02-09T01:42:01.781Z,3.20
2019-02-09T01:45:09.991Z,2.98
2019-02-09T01:48:16.352Z,2.98
2019-02-09T01:51:23.105Z,3.71
2019-02-09T01:54:30.198Z,4.01
2019-02-09T01:57:36.608Z,4.07
2019-02-09T02:00:43.171Z,4.07
2019-02-09T02:03:49.696Z,4.04
2019-02-09T02:06:57.553Z,4.17
2019-02-09T02:10:05.410Z,4.19
2019-02-09T02:13:12.108Z,4.08
2019-02-09T02:16:18.453Z,4.12
2019-02-09T02:19:25.673Z,4.09
2019-02-09T02:22:32.639Z,4.16
2019-02-09T02:25:39.516Z,4.11
2019-02-09T02:28:46.016Z,4.10
2019-02-09T02:31:53.302Z,4.14
2019-02-09T02:35:00.431Z,3.74
2019-02-09T02:38:07.179Z,3.79
2019-02-09T02:41:13.563Z,4.05
2019-02-09T02:44:20.045Z,3.94
2019-02-09T02:47:27.179Z,4.05
2019-02-09T02:50:33.701Z,4.00
2019-02-09T02:53:40.158Z,4.00
2019-02-09T02:56:47.500Z,3.98
2019-02-09T02:59:54.340Z,3.88
2019-02-09T03:03:01.515Z,3.78
2019-02-09T03:06:08.577Z,3.98
2019-02-09T03:09:15.575Z,3.98
2019-02-09T03:12:23.249Z,3.88
2019-02-09T03:15:30.869Z,3.84
2019-02-09T03:18:37.428Z,3.96
2019-02-09T03:21:44.689Z,3.88
2019-02-09T03:24:53.500Z,3.80
2019-02-09T03:28:00.195Z,3.61
2019-02-09T03:31:06.705Z,3.26
2019-02-09T03:34:13.731Z,3.03
2019-02-09T03:37:22.331Z,3.01
2019-02-09T03:40:29.368Z,2.89
2019-02-09T03:43:36.352Z,2.92
2019-02-09T03:46:42.875Z,2.93
2019-02-09T03:49:49.689Z,2.95
2019-02-09T03:52:56.213Z,2.86
2019-02-09T03:56:02.600Z,2.74
2019-02-09T03:59:09.350Z,2.83
2019-02-09T04:02:15.720Z,2.88
2019-02-09T04:05:22.555Z,2.79
2019-02-09T04:08:28.942Z,2.82
2019-02-09T04:11:36.121Z,2.99
2019-02-09T04:14:42.776Z,3.09
2019-02-09T04:17:49.967Z,3.18
2019-02-09T04:20:56.850Z,3.24
2019-02-09T04:24:03.933Z,3.20
2019-02-09T04:27:10.643Z,3.28
2019-02-09T04:30:23.166Z,3.20
2019-02-09T04:33:29.831Z,3.31
2019-02-09T04:36:37.010Z,3.34
2019-02-09T04:39:43.836Z,3.40
2019-02-09T04:42:50.784Z,3.39
2019-02-09T04:45:58.448Z,3.43
2019-02-09T04:49:05.126Z,3.31
2019-02-09T04:52:11.645Z,3.34
2019-02-09T04:55:20.252Z,3.24
2019-02-09T04:58:27.195Z,3.38
2019-02-09T05:01:36.652Z,3.30
2019-02-09T05:04:42.998Z,3.31
2019-02-09T05:07:49.751Z,3.44
2019-02-09T05:10:56.261Z,3.49
2019-02-09T05:14:02.784Z,3.50
2019-02-09T05:17:08.885Z,3.46
2019-02-09T05:20:18.505Z,3.40
2019-02-09T05:23:25.238Z,3.44
2019-02-09T05:26:31.820Z,3.43
2019-02-09T05:29:38.286Z,3.46
2019-02-09T05:32:44.982Z,3.49
2019-02-09T05:35:51.709Z,3.50
2019-02-09T05:38:57.946Z,3.54
2019-02-09T05:42:04.256Z,3.64
2019-02-09T05:45:14.136Z,3.55
2019-02-09T05:48:20.708Z,3.50
2019-02-09T05:51:27.725Z,3.50
2019-02-09T05:54:34.241Z,3.55
2019-02-09T05:57:40.881Z,3.59
2019-02-09T06:00:47.535Z,3.46
2019-02-09T06:03:53.850Z,3.55
2019-02-09T06:07:00.557Z,3.49
2019-02-09T06:10:10.232Z,3.63
2019-02-09T06:13:16.950Z,3.59
2019-02-09T06:16:23.271Z,3.57
2019-02-09T06:19:30.539Z,3.56
2019-02-09T06:22:37.947Z,3.68
2019-02-09T06:25:44.799Z,3.70
2019-02-09T06:28:52.221Z,3.74
2019-02-09T06:31:58.794Z,3.74
2019-02-09T06:35:05.767Z,3.80
2019-02-09T06:38:12.371Z,3.82
2019-02-09T06:41:19.267Z,3.92
2019-02-09T06:44:25.805Z,4.00
2019-02-09T06:47:32.153Z,4.09
2019-02-09T06:50:39.577Z,4.13
2019-02-09T06:53:46.425Z,4.04
2019-02-09T06:56:52.891Z,4.25
2019-02-09T06:59:59.569Z,4.12
2019-02-09T07:03:06.024Z,4.09
2019-02-09T07:06:13.205Z,4.10
2019-02-09T07:09:19.846Z,4.16
2019-02-09T07:12:26.928Z,4.12
2019-02-09T07:15:33.733Z,4.03
2019-02-09T07:18:40.898Z,4.02
2019-02-09T07:21:48.335Z,3.86
2019-02-09T07:24:55.115Z,4.06
2019-02-09T07:28:01.914Z,3.97
2019-02-09T07:31:08.458Z,4.06
2019-02-09T07:34:14.998Z,4.05
2019-02-09T07:37:22.212Z,4.06
2019-02-09T07:40:29.279Z,4.13
2019-02-09T07:43:36.229Z,4.10
2019-02-09T07:46:42.825Z,4.00
2019-02-09T07:49:51.551Z,3.93
2019-02-09T07:52:58.820Z,3.97
2019-02-09T07:56:05.617Z,4.17
2019-02-09T07:59:12.261Z,4.25
2019-02-09T08:02:19.532Z,4.38
2019-02-09T08:05:27.888Z,4.27
2019-02-09T08:08:34.064Z,4.42
2019-02-09T08:11:40.792Z,4.57
2019-02-09T08:14:47.519Z,4.67
2019-02-09T08:17:56.835Z,4.72
2019-02-09T08:21:03.524Z,4.74
2019-02-09T08:24:10.060Z,4.78
2019-02-09T08:27:23.397Z,4.93
2019-02-09T08:30:33.336Z,4.93
2019-02-09T08:33:39.679Z,4.94
2019-02-09T08:36:46.807Z,5.14
2019-02-09T08:39:53.265Z,5.14
2019-02-09T08:42:59.644Z,5.03
2019-02-09T08:46:07.287Z,5.23
2019-02-09T08:49:14.289Z,5.24
2019-02-09T08:52:21.029Z,5.33
2019-02-09T08:55:27.769Z,5.39
2019-02-09T08:58:34.126Z,5.52
2019-02-09T09:01:40.768Z,5.80
2019-02-09T09:04:48.293Z,5.97
2019-02-09T09:07:54.577Z,6.02
2019-02-09T09:11:01.504Z,6.35
2019-02-09T09:14:08.875Z,6.30
2019-02-09T09:17:17.645Z,6.02
2019-02-09T09:20:27.114Z,5.66
2019-02-09T09:23:35.062Z,5.74
2019-02-09T09:26:41.799Z,5.53
2019-02-09T09:29:48.589Z,5.51
2019-02-09T09:32:55.060Z,5.35
2019-02-09T09:36:01.816Z,5.46
2019-02-09T09:39:09.660Z,5.52
2019-02-09T09:42:16.241Z,5.99
2019-02-09T09:45:25.343Z,6.36
2019-02-09T09:48:31.705Z,6.73
2019-02-09T09:51:38.693Z,6.54
2019-02-09T09:54:45.443Z,6.66
2019-02-09T09:57:51.723Z,6.42
2019-02-09T10:00:58.169Z,6.39
2019-02-09T10:04:04.790Z,6.54
2019-02-09T10:07:11.147Z,6.73
2019-02-09T10:10:18.609Z,6.74
2019-02-09T10:13:25.328Z,6.55
2019-02-09T10:16:32.300Z,6.51
2019-02-09T10:19:38.743Z,6.54
2019-02-09T10:22:45.569Z,6.61
2019-02-09T10:25:51.983Z,6.83
2019-02-09T10:29:01.855Z,6.94
2019-02-09T10:32:08.803Z,7.07
2019-02-09T10:35:15.729Z,7.01
2019-02-09T10:38:22.050Z,7.34
2019-02-09T10:41:29.425Z,7.34
2019-02-09T10:44:36.654Z,7.39
2019-02-09T10:47:43.101Z,7.23
2019-02-09T10:50:49.888Z,7.70
2019-02-09T10:53:56.647Z,7.87
2019-02-09T10:57:03.405Z,7.78
2019-02-09T11:00:16.092Z,7.87
2019-02-09T11:03:23.006Z,7.73
2019-02-09T11:06:29.662Z,7.47
2019-02-09T11:09:36.389Z,7.25
2019-02-09T11:12:44.465Z,7.07
2019-02-09T11:15:51.157Z,7.41
2019-02-09T11:18:57.593Z,7.50
2019-02-09T11:22:04.317Z,7.65
2019-02-09T11:25:13.889Z,7.49
2019-02-09T11:28:20.562Z,7.30
2019-02-09T11:31:27.556Z,7.44
2019-02-09T11:34:34.473Z,7.33
2019-02-09T11:37:41.644Z,7.61
2019-02-09T11:40:48.150Z,7.86
2019-02-09T11:43:55.016Z,8.26
2019-02-09T11:47:02.023Z,8.36
2019-02-09T11:50:09.587Z,8.01
2019-02-09T11:53:16.403Z,7.68
2019-02-09T11:56:23.178Z,7.98
2019-02-09T11:59:30.043Z,8.30
2019-02-09T12:02:36.694Z,8.06
2019-02-09T12:05:43.262Z,8.12
2019-02-09T12:08:49.948Z,8.26
2019-02-09T12:11:56.836Z,7.81
2019-02-09T12:15:04.589Z,7.76
2019-02-09T12:18:11.754Z,8.08
2019-02-09T12:21:18.392Z,8.00
2019-02-09T12:24:24.897Z,7.52
2019-02-09T12:27:31.491Z,7.16
2019-02-09T12:30:39.506Z,7.00
2019-02-09T12:33:47.384Z,6.74
2019-02-09T12:36:54.322Z,6.55
2019-02-09T12:40:00.902Z,6.71
2019-02-09T12:43:07.875Z,7.05
2019-02-09T12:46:14.653Z,7.23
2019-02-09T12:49:21.244Z,7.25
2019-02-09T12:52:28.217Z,7.24
2019-02-09T12:55:34.943Z,7.18
2019-02-09T12:58:41.859Z,7.31
2019-02-09T13:01:48.808Z,7.75
2019-02-09T13:04:56.003Z,7.89
2019-02-09T13:08:02.960Z,7.91
2019-02-09T13:11:09.794Z,7.89
2019-02-09T13:14:17.448Z,8.10
2019-02-09T13:17:24.279Z,8.11
2019-02-09T13:20:31.255Z,8.20
2019-02-09T13:23:38.400Z,8.26
2019-02-09T13:26:45.212Z,8.13
2019-02-09T13:29:53.612Z,7.76
2019-02-09T13:33:00.030Z,7.33
2019-02-09T13:36:07.015Z,7.21
2019-02-09T13:39:13.902Z,7.23
2019-02-09T13:42:20.953Z,7.33
2019-02-09T13:45:30.787Z,7.21
2019-02-09T13:48:37.967Z,7.34
2019-02-09T13:51:45.101Z,7.23
2019-02-09T13:54:51.864Z,7.20
2019-02-09T13:57:59.138Z,7.08
2019-02-09T14:01:06.524Z,7.31
2019-02-09T14:04:12.974Z,7.38
2019-02-09T14:07:19.654Z,7.18
2019-02-09T14:10:27.135Z,7.27
2019-02-09T14:13:34.968Z,7.38
2019-02-09T14:16:42.280Z,7.36
2019-02-09T14:19:49.188Z,7.35
2019-02-09T14:22:55.857Z,7.32
2019-02-09T14:26:02.373Z,7.29
2019-02-09T14:29:10.214Z,7.27
2019-02-09T14:32:16.733Z,7.30
2019-02-09T14:35:24.383Z,7.14
2019-02-09T14:38:31.232Z,6.94
2019-02-09T14:41:39.317Z,6.82
2019-02-09T14:44:45.856Z,6.86
2019-02-09T14:47:52.500Z,6.84
2019-02-09T14:50:59.491Z,6.66
2019-02-09T14:54:06.589Z,6.60
2019-02-09T14:57:13.373Z,6.49
2019-02-09T15:00:21.934Z,6.33
2019-02-09T15:03:30.734Z,6.19
2019-02-09T15:06:37.315Z,6.18
2019-02-09T15:09:44.757Z,6.27
2019-02-09T15:12:52.367Z,6.17
2019-02-09T15:16:23.615Z,6.06
2019-02-09T15:19:39.358Z,5.96
2019-02-09T15:22:46.016Z,5.92
2019-02-09T15:25:53.294Z,5.89
2019-02-09T15:29:00.309Z,5.97
2019-02-09T15:32:08.201Z,5.86
2019-02-09T15:35:15.442Z,5.93
2019-02-09T15:38:22.252Z,5.75
2019-02-09T15:41:29.021Z,5.60
2019-02-09T15:44:36.036Z,5.64
2019-02-09T15:47:42.780Z,5.62
2019-02-09T15:50:49.848Z,5.64
2019-02-09T15:53:56.782Z,5.52
2019-02-09T15:57:03.730Z,5.54
2019-02-09T16:00:20.949Z,5.56
2019-02-09T16:03:27.643Z,5.47
2019-02-09T16:06:34.826Z,5.55
2019-02-09T16:09:41.357Z,5.46
2019-02-09T16:12:49.970Z,5.43
2019-02-09T16:15:56.696Z,5.40
2019-02-09T16:19:03.417Z,5.30
2019-02-09T16:22:09.685Z,5.24
2019-02-09T16:25:17.250Z,5.12
2019-02-09T16:28:24.020Z,5.13
2019-02-09T16:31:31.472Z,5.10
2019-02-09T16:34:39.290Z,4.98
2019-02-09T16:37:46.309Z,4.93
2019-02-09T16:40:52.934Z,5.05
2019-02-09T16:43:59.822Z,4.98
2019-02-09T16:47:06.951Z,5.02
2019-02-09T16:50:15.226Z,5.04
2019-02-09T16:53:22.893Z,4.94
2019-02-09T16:56:29.453Z,4.93
2019-02-09T16:59:36.153Z,5.10
2019-02-09T17:02:43.251Z,4.97
2019-02-09T17:05:53.401Z,5.02
2019-02-09T17:08:59.832Z,4.93
2019-02-09T17:12:08.406Z,4.94
2019-02-09T17:15:17.691Z,4.85
2019-02-09T17:18:24.714Z,4.96
2019-02-09T17:21:32.188Z,5.08
2019-02-09T17:24:39.638Z,5.04
2019-02-09T17:27:46.806Z,5.22
2019-02-09T17:30:54.127Z,5.24
2019-02-09T17:34:00.834Z,5.13
2019-02-09T17:37:07.603Z,5.17
2019-02-09T17:40:15.529Z,5.23
2019-02-09T17:43:23.023Z,5.29
2019-02-09T17:46:29.643Z,5.14
2019-02-09T17:49:36.123Z,5.20
2019-02-09T17:52:42.977Z,5.09
2019-02-09T17:55:49.638Z,5.10
2019-02-09T17:58:55.896Z,5.14
2019-02-09T18:02:03.673Z,5.11
2019-02-09T18:05:10.924Z,5.10
2019-02-09T18:08:17.995Z,4.99
2019-02-09T18:11:25.276Z,4.93
2019-02-09T18:14:31.571Z,4.99
2019-02-09T18:17:38.135Z,5.07
2019-02-09T18:20:47.777Z,4.96
2019-02-09T18:23:54.407Z,4.90
2019-02-09T18:27:01.189Z,5.05
2019-02-09T18:30:11.244Z,4.96
2019-02-09T18:33:17.911Z,4.91
2019-02-09T18:36:24.158Z,4.79
2019-02-09T18:39:31.347Z,4.87
2019-02-09T18:42:38.273Z,4.70
2019-02-09T18:45:47.761Z,4.86
2019-02-09T18:48:54.409Z,4.79
2019-02-09T18:52:01.898Z,4.92
2019-02-09T18:55:09.634Z,4.87
2019-02-09T18:58:16.314Z,4.60
2019-02-09T19:01:23.326Z,4.70
2019-02-09T19:04:33.412Z,4.68
2019-02-09T19:07:40.014Z,4.52
2019-02-09T19:10:47.222Z,4.50
2019-02-09T19:13:54.433Z,4.28
2019-02-09T19:17:01.694Z,4.19
2019-02-09T19:20:13.355Z,4.50
2019-02-09T19:23:20.094Z,4.48
2019-02-09T19:26:27.188Z,4.34
2019-02-09T19:29:34.441Z,4.43
2019-02-09T19:32:41.304Z,4.47
2019-02-09T19:35:50.954Z,4.45
2019-02-09T19:38:57.787Z,4.52
2019-02-09T19:42:05.844Z,4.48
2019-02-09T19:45:25.108Z,4.46
2019-02-09T19:48:35.054Z,4.56
2019-02-09T19:51:42.311Z,4.60
2019-02-09T19:54:49.095Z,4.56
2019-02-09T19:57:56.348Z,4.35
2019-02-09T20:01:03.347Z,4.32
2019-02-09T20:04:10.315Z,4.36
2019-02-09T20:07:17.294Z,4.60
2019-02-09T20:10:32.540Z,4.61
2019-02-09T20:13:39.198Z,4.48
2019-02-09T20:16:46.392Z,4.35
2019-02-09T20:19:53.268Z,4.51
2019-02-09T20:23:00.285Z,4.57
2019-02-09T20:26:06.886Z,4.59
2019-02-09T20:29:13.956Z,4.61
2019-02-09T20:32:20.923Z,4.53
2019-02-09T20:35:28.230Z,4.66
2019-02-09T20:38:35.015Z,4.73
2019-02-09T20:41:42.034Z,4.80
2019-02-09T20:44:48.704Z,4.81
2019-02-09T20:47:55.249Z,4.71
2019-02-09T20:51:03.599Z,4.73
2019-02-09T20:54:10.033Z,4.75
2019-02-09T20:57:17.081Z,4.86
2019-02-09T21:00:24.655Z,4.87
2019-02-09T21:03:31.563Z,4.91
2019-02-09T21:06:40.014Z,4.86
2019-02-09T21:09:47.529Z,4.93
2019-02-09T21:12:54.758Z,4.88
2019-02-09T21:16:02.933Z,4.70
2019-02-09T21:19:09.590Z,4.86
2019-02-09T21:22:16.287Z,4.98
2019-02-09T21:25:34.145Z,4.86
2019-02-09T21:28:40.951Z,4.68
2019-02-09T21:31:48.057Z,4.68
2019-02-09T21:34:54.963Z,4.63
2019-02-09T21:38:05.224Z,4.60
2019-02-09T21:41:13.164Z,4.56
2019-02-09T21:44:20.797Z,4.63
2019-02-09T21:47:27.623Z,4.69
2019-02-09T21:50:35.521Z,4.68
2019-02-09T21:53:42.508Z,4.82
2019-02-09T21:56:49.721Z,4.65
2019-02-09T21:59:56.609Z,4.42
2019-02-09T22:03:03.536Z,4.42
2019-02-09T22:06:10.985Z,4.40
2019-02-09T22:09:18.161Z,4.20
2019-02-09T22:12:26.432Z,4.00
2019-02-09T22:15:38.685Z,3.98
2019-02-09T22:18:43.103Z,3.83
2019-02-09T22:21:50.224Z,3.73
2019-02-09T22:24:57.656Z,3.61
2019-02-09T22:28:04.728Z,3.48
2019-02-09T22:31:11.983Z,3.40
2019-02-09T22:34:18.959Z,3.37
2019-02-09T22:37:26.862Z,3.32
2019-02-09T22:40:35.300Z,3.43
2019-02-09T22:43:43.004Z,3.45
2019-02-09T22:46:49.551Z,3.58
2019-02-09T22:49:56.254Z,3.58
2019-02-09T22:53:03.130Z,3.54
2019-02-09T22:56:10.305Z,3.35
2019-02-09T22:59:17.150Z,3.46
2019-02-09T23:02:23.660Z,3.44
2019-02-09T23:06:16.036Z,3.44
2019-02-09T23:09:25.274Z,3.54
2019-02-09T23:12:31.928Z,3.51
2019-02-09T23:15:39.184Z,3.65
2019-02-09T23:18:46.482Z,3.68
2019-02-09T23:21:54.250Z,3.40
2019-02-09T23:25:00.856Z,3.33
2019-02-09T23:28:07.990Z,3.38
2019-02-09T23:31:14.599Z,3.42
2019-02-09T23:34:21.926Z,3.45
2019-02-09T23:37:29.362Z,3.64
2019-02-09T23:40:37.974Z,3.58
2019-02-09T23:43:45.284Z,3.40
2019-02-09T23:46:51.684Z,3.46
2019-02-09T23:49:58.592Z,3.81
2019-02-09T23:53:05.348Z,3.58
2019-02-09T23:56:12.016Z,3.45
2019-02-09T23:59:18.632Z,3.63
